Time;durP1;ratioP1;P1;durP2;ratioP2;P2;SDS_P1;SDS_P2;PMS_P1;PMS_P2;Temp;Humidity;BMP_temperature;BMP_pressure;BME280_temperature;BME280_humidity;BME280_pressure;Samples;Min_cycle;Max_cycle;Signal;HPM_P1;HPM_P2
2023/09/06 00:01:40;;;;;;;4.00;2.20;;;;;;;;;;5033504;28;20391;-58
2023/09/06 00:04:05;;;;;;;4.60;2.20;;;;;;;;;;5028743;28;20412;-59
2023/09/06 00:06:31;;;;;;;4.40;2.13;;;;;;;;;;5033465;28;20399;-58
2023/09/06 00:08:56;;;;;;;3.57;1.80;;;;;;;;;;5034569;28;20417;-58
2023/09/06 00:11:21;;;;;;;5.20;2.07;;;;;;;;;;5033994;28;20393;-58
2023/09/06 00:13:46;;;;;;;6.43;2.30;;;;;;;;;;5034324;28;20409;-58
2023/09/06 00:16:12;;;;;;;4.87;2.00;;;;;;;;;;5035848;28;20411;-59
2023/09/06 00:18:38;;;;;;;4.40;2.20;;;;;;;;;;5032914;28;20473;-59
2023/09/06 00:21:05;;;;;;;3.63;2.00;;;;;;;;;;5029195;28;20451;-58
2023/09/06 00:23:31;;;;;;;3.60;1.90;;;;;;;;;;5036878;28;20416;-58
2023/09/06 00:25:56;;;;;;;6.55;2.20;;;;;;;;;;5037483;28;20478;-58
2023/09/06 00:28:23;;;;;;;5.53;2.27;;;;;;;;;;5030559;28;20395;-59
2023/09/06 00:30:49;;;;;;;5.13;2.20;;;;;;;;;;5029907;28;21813;-58
2023/09/06 00:33:14;;;;;;;4.63;2.20;;;;;;;;;;5026133;28;20405;-59
2023/09/06 00:35:39;;;;;;;5.80;2.30;;;;;;;;;;5024369;28;20414;-58
2023/09/06 00:38:05;;;;;;;5.77;2.10;;;;;;;;;;5020783;28;20407;-59
2023/09/06 00:40:30;;;;;;;4.70;2.17;;;;;;;;;;5025405;28;20406;-58
2023/09/06 00:42:59;;;;;;;6.57;2.23;;;;;;;;;;5020839;28;20930;-58
2023/09/06 00:45:26;;;;;;;4.80;2.00;;;;;;;;;;5017215;28;20402;-58
2023/09/06 00:47:51;;;;;;;6.05;1.95;;;;;;;;;;5024706;28;20406;-58
2023/09/06 00:50:17;;;;;;;5.37;2.07;;;;;;;;;;5024083;28;20423;-58
2023/09/06 00:52:42;;;;;;;5.57;2.28;;;;;;;;;;5022358;28;21022;-58
2023/09/06 00:55:08;;;;;;;4.07;2.10;;;;;;;;;;5021949;28;20530;-58
2023/09/06 00:57:33;;;;;;;4.97;1.97;;;;;;;;;;5025139;28;20433;-58
2023/09/06 00:59:58;;;;;;;6.47;2.20;;;;;;;;;;5023991;28;20414;-58
2023/09/06 01:02:26;;;;;;;3.60;2.00;;;;;;;;;;5010644;28;20400;-58
2023/09/06 01:04:53;;;;;;;3.75;2.10;;;;;;;;;;4983555;28;20533;-58
2023/09/06 01:07:18;;;;;;;4.03;2.00;;;;;;;;;;4981349;28;20474;-58
2023/09/06 01:09:44;;;;;;;4.57;2.55;;;;;;;;;;4984339;28;21043;-58
2023/09/06 01:12:09;;;;;;;4.60;2.20;;;;;;;;;;4993753;28;20412;-58
2023/09/06 01:14:37;;;;;;;4.73;2.50;;;;;;;;;;4987136;28;20415;-58
2023/09/06 01:17:02;;;;;;;5.03;2.28;;;;;;;;;;4990468;28;20917;-58
2023/09/06 01:19:28;;;;;;;3.27;1.97;;;;;;;;;;4994536;28;20418;-58
2023/09/06 01:21:58;;;;;;;4.90;2.50;;;;;;;;;;5002970;28;20418;-58
2023/09/06 01:24:24;;;;;;;5.32;2.35;;;;;;;;;;4995510;28;20402;-58
2023/09/06 01:26:49;;;;;;;4.90;2.10;;;;;;;;;;5000488;28;20424;-58
2023/09/06 01:29:15;;;;;;;4.87;2.50;;;;;;;;;;5000341;28;20414;-58
2023/09/06 01:31:40;;;;;;;4.40;2.50;;;;;;;;;;4986581;28;20418;-58
2023/09/06 01:34:05;;;;;;;3.33;2.10;;;;;;;;;;4988974;28;20441;-59
2023/09/06 01:36:31;;;;;;;4.57;2.40;;;;;;;;;;4990272;28;20403;-58
2023/09/06 01:38:57;;;;;;;6.23;2.30;;;;;;;;;;4989421;28;20421;-58
2023/09/06 01:41:22;;;;;;;4.73;2.20;;;;;;;;;;4989507;28;20402;-58
2023/09/06 01:43:50;;;;;;;4.13;2.30;;;;;;;;;;4995792;28;20403;-58
2023/09/06 01:46:15;;;;;;;4.53;2.22;;;;;;;;;;4987694;28;20435;-58
2023/09/06 01:48:40;;;;;;;5.57;2.67;;;;;;;;;;4998086;28;20752;-58
2023/09/06 01:51:08;;;;;;;4.27;2.40;;;;;;;;;;4996060;28;21043;-58
2023/09/06 01:53:33;;;;;;;6.40;2.60;;;;;;;;;;5000799;28;20569;-58
2023/09/06 01:55:59;;;;;;;4.73;2.50;;;;;;;;;;4995496;28;20429;-58
2023/09/06 01:58:24;;;;;;;4.37;2.30;;;;;;;;;;4997205;28;20432;-58
2023/09/06 02:00:49;;;;;;;4.77;2.20;;;;;;;;;;4992968;28;20412;-58
2023/09/06 02:03:15;;;;;;;4.10;2.30;;;;;;;;;;4987815;28;20453;-58
2023/09/06 02:05:43;;;;;;;4.85;2.30;;;;;;;;;;4988597;28;20426;-58
2023/09/06 02:08:09;;;;;;;4.60;2.30;;;;;;;;;;4992565;28;20746;-58
2023/09/06 02:10:34;;;;;;;4.40;2.20;;;;;;;;;;4986914;28;21085;-58
2023/09/06 02:12:59;;;;;;;4.60;2.10;;;;;;;;;;4981608;28;21721;-58
2023/09/06 02:15:25;;;;;;;3.97;2.30;;;;;;;;;;4982961;28;20425;-58
2023/09/06 02:17:50;;;;;;;4.23;2.30;;;;;;;;;;4984921;28;20967;-58
2023/09/06 02:20:22;;;;;;;4.07;2.30;;;;;;;;;;4988682;28;20832;-58
2023/09/06 02:22:48;;;;;;;4.25;2.45;;;;;;;;;;4989745;28;20508;-58
2023/09/06 02:25:14;;;;;;;7.10;2.20;;;;;;;;;;4993252;28;20516;-58
2023/09/06 02:27:40;;;;;;;3.95;2.30;;;;;;;;;;4989801;28;20925;-58
2023/09/06 02:30:06;;;;;;;5.65;2.33;;;;;;;;;;5001128;28;20428;-59
2023/09/06 02:32:32;;;;;;;5.70;2.60;;;;;;;;;;5017578;28;21090;-58
2023/09/06 02:34:57;;;;;;;4.00;2.25;;;;;;;;;;5021712;28;20422;-58
2023/09/06 02:37:22;;;;;;;3.60;2.17;;;;;;;;;;5022391;28;21605;-58
2023/09/06 02:39:48;;;;;;;7.90;2.37;;;;;;;;;;5021822;28;20403;-58
2023/09/06 02:42:13;;;;;;;3.70;2.03;;;;;;;;;;5019457;28;20399;-58
2023/09/06 02:44:38;;;;;;;5.17;2.20;;;;;;;;;;5013703;28;20405;-58
2023/09/06 02:47:08;;;;;;;3.87;2.17;;;;;;;;;;5022899;28;20870;-58
2023/09/06 02:49:34;;;;;;;4.93;2.17;;;;;;;;;;5018568;28;20457;-57
2023/09/06 02:51:59;;;;;;;4.77;2.10;;;;;;;;;;5022169;28;20398;-58
2023/09/06 02:54:24;;;;;;;3.47;2.17;;;;;;;;;;5022709;28;20399;-58
2023/09/06 02:56:49;;;;;;;5.97;2.50;;;;;;;;;;5020414;28;20431;-58
2023/09/06 02:59:15;;;;;;;4.43;2.23;;;;;;;;;;5019753;28;20418;-58
2023/09/06 03:01:44;;;;;;;4.40;2.00;;;;;;;;;;5023023;28;20428;-58
2023/09/06 03:04:13;;;;;;;5.50;2.30;;;;;;;;;;5021598;28;20414;-58
2023/09/06 03:06:38;;;;;;;3.97;2.15;;;;;;;;;;5017639;28;21472;-58
2023/09/06 03:09:06;;;;;;;4.13;2.10;;;;;;;;;;5022532;28;20450;-58
2023/09/06 03:11:31;;;;;;;4.40;2.28;;;;;;;;;;5017110;28;20761;-58
2023/09/06 03:13:57;;;;;;;3.50;2.10;;;;;;;;;;5023239;28;20429;-58
2023/09/06 03:16:22;;;;;;;4.83;2.20;;;;;;;;;;5029770;28;20383;-58
2023/09/06 03:18:49;;;;;;;3.80;2.00;;;;;;;;;;5017820;28;20403;-58
2023/09/06 03:21:16;;;;;;;6.25;2.40;;;;;;;;;;5023207;28;20410;-58
2023/09/06 03:23:44;;;;;;;4.68;2.15;;;;;;;;;;5021667;28;20445;-58
2023/09/06 03:26:10;;;;;;;3.50;2.30;;;;;;;;;;5022601;28;20398;-58
2023/09/06 03:28:40;;;;;;;4.50;2.10;;;;;;;;;;5029085;28;20431;-58
2023/09/06 03:31:08;;;;;;;5.63;2.40;;;;;;;;;;5015168;28;20422;-58
2023/09/06 03:33:35;;;;;;;4.30;2.13;;;;;;;;;;5022280;28;20411;-58
2023/09/06 03:36:01;;;;;;;4.03;2.25;;;;;;;;;;5021074;28;20473;-59
2023/09/06 03:38:26;;;;;;;4.35;2.10;;;;;;;;;;5017023;28;20847;-58
2023/09/06 03:40:52;;;;;;;4.30;2.20;;;;;;;;;;5020194;28;20407;-58
2023/09/06 03:43:19;;;;;;;3.90;2.30;;;;;;;;;;5022134;28;20814;-58
2023/09/06 03:45:50;;;;;;;3.88;2.13;;;;;;;;;;5020280;28;20437;-58
2023/09/06 03:48:17;;;;;;;6.47;2.10;;;;;;;;;;5020772;28;20809;-58
2023/09/06 03:50:43;;;;;;;6.27;2.60;;;;;;;;;;5026126;28;20922;-58
2023/09/06 03:53:08;;;;;;;4.53;2.15;;;;;;;;;;5025208;28;20466;-58
2023/09/06 03:55:34;;;;;;;4.67;2.30;;;;;;;;;;5020829;28;20450;-58
2023/09/06 03:58:00;;;;;;;5.28;2.38;;;;;;;;;;5025975;28;20893;-58
2023/09/06 04:00:28;;;;;;;3.97;2.20;;;;;;;;;;5025874;28;20933;-58
2023/09/06 04:02:54;;;;;;;5.72;2.70;;;;;;;;;;5023068;28;20418;-58
2023/09/06 04:05:22;;;;;;;5.45;2.40;;;;;;;;;;5022078;28;21402;-58
2023/09/06 04:07:48;;;;;;;6.20;2.60;;;;;;;;;;5026245;28;20399;-58
2023/09/06 04:10:16;;;;;;;6.33;2.90;;;;;;;;;;5024297;28;20407;-58
2023/09/06 04:12:43;;;;;;;5.32;2.50;;;;;;;;;;5020819;28;20401;-58
2023/09/06 04:15:09;;;;;;;4.80;2.28;;;;;;;;;;5008323;28;20423;-58
2023/09/06 04:17:35;;;;;;;4.15;2.60;;;;;;;;;;5008532;28;20421;-58
2023/09/06 04:20:00;;;;;;;6.07;2.60;;;;;;;;;;4996604;28;20557;-58
2023/09/06 04:22:25;;;;;;;5.70;2.37;;;;;;;;;;5001742;28;20413;-58
2023/09/06 04:24:51;;;;;;;6.60;2.63;;;;;;;;;;5002117;28;20432;-58
2023/09/06 04:27:16;;;;;;;5.23;2.70;;;;;;;;;;5002417;28;20409;-58
2023/09/06 04:29:41;;;;;;;4.80;2.60;;;;;;;;;;5005065;28;21425;-58
2023/09/06 04:32:07;;;;;;;5.07;2.40;;;;;;;;;;5002013;28;21005;-58
2023/09/06 04:34:32;;;;;;;6.33;2.47;;;;;;;;;;5003765;28;20440;-58
2023/09/06 04:36:57;;;;;;;4.90;2.53;;;;;;;;;;5006917;28;20406;-58
2023/09/06 04:39:25;;;;;;;4.97;2.70;;;;;;;;;;5001946;28;20901;-58
2023/09/06 04:41:50;;;;;;;6.50;2.60;;;;;;;;;;5007434;28;20412;-58
2023/09/06 04:44:15;;;;;;;4.07;2.60;;;;;;;;;;4988114;28;20418;-58
2023/09/06 04:46:40;;;;;;;4.70;2.80;;;;;;;;;;4996866;28;20412;-58
2023/09/06 04:49:07;;;;;;;5.13;2.67;;;;;;;;;;4992665;28;20411;-58
2023/09/06 04:51:32;;;;;;;6.00;2.78;;;;;;;;;;5000292;28;20413;-58
2023/09/06 04:53:57;;;;;;;4.90;2.57;;;;;;;;;;5004488;28;20762;-58
2023/09/06 04:56:23;;;;;;;5.63;2.70;;;;;;;;;;5008795;28;20393;-57
2023/09/06 04:58:48;;;;;;;5.77;2.27;;;;;;;;;;5000277;28;20835;-58
2023/09/06 05:01:14;;;;;;;5.80;2.67;;;;;;;;;;5002171;28;20420;-58
2023/09/06 05:03:40;;;;;;;4.47;2.37;;;;;;;;;;5008283;28;20852;-58
2023/09/06 05:06:05;;;;;;;4.72;2.17;;;;;;;;;;4996895;28;20414;-59
2023/09/06 05:08:32;;;;;;;4.65;2.45;;;;;;;;;;5020065;28;20467;-58
2023/09/06 05:10:57;;;;;;;5.20;2.70;;;;;;;;;;5040293;28;20438;-58
2023/09/06 05:13:23;;;;;;;5.23;2.57;;;;;;;;;;5042677;28;20409;-58
2023/09/06 05:15:48;;;;;;;4.37;2.70;;;;;;;;;;5039859;28;20784;-58
2023/09/06 05:18:14;;;;;;;5.30;2.50;;;;;;;;;;5043818;28;20441;-58
2023/09/06 05:20:39;;;;;;;4.80;2.63;;;;;;;;;;5031230;28;21199;-58
2023/09/06 05:23:05;;;;;;;5.33;2.50;;;;;;;;;;5037179;28;20414;-59
2023/09/06 05:25:31;;;;;;;4.47;2.55;;;;;;;;;;5032170;28;20465;-58
2023/09/06 05:27:58;;;;;;;6.63;2.58;;;;;;;;;;5030153;28;20453;-58
2023/09/06 05:30:24;;;;;;;5.20;2.40;;;;;;;;;;5023682;28;20930;-58
2023/09/06 05:32:49;;;;;;;5.93;2.53;;;;;;;;;;5027549;28;20448;-58
2023/09/06 05:35:15;;;;;;;4.72;2.35;;;;;;;;;;5023131;28;20413;-58
2023/09/06 05:37:40;;;;;;;4.82;2.40;;;;;;;;;;5019824;28;20536;-58
2023/09/06 05:40:06;;;;;;;4.53;2.00;;;;;;;;;;5015365;28;20442;-59
2023/09/06 05:42:31;;;;;;;3.80;2.30;;;;;;;;;;5024670;28;20427;-58
2023/09/06 05:44:57;;;;;;;4.50;2.30;;;;;;;;;;5023257;28;20447;-58
2023/09/06 05:47:22;;;;;;;6.37;2.50;;;;;;;;;;5023854;28;20449;-59
2023/09/06 05:49:51;;;;;;;4.77;2.37;;;;;;;;;;5025925;28;20982;-59
2023/09/06 05:52:16;;;;;;;4.90;2.40;;;;;;;;;;5022880;28;20405;-59
2023/09/06 05:54:41;;;;;;;4.40;2.33;;;;;;;;;;5011405;28;20913;-59
2023/09/06 05:57:07;;;;;;;4.13;2.20;;;;;;;;;;5016019;28;20403;-59
2023/09/06 05:59:32;;;;;;;6.10;2.20;;;;;;;;;;5030950;28;20391;-59
2023/09/06 06:01:57;;;;;;;3.95;2.03;;;;;;;;;;5023998;28;20945;-59
2023/09/06 06:04:23;;;;;;;5.35;2.33;;;;;;;;;;5023958;28;20442;-59
2023/09/06 06:06:48;;;;;;;3.83;2.10;;;;;;;;;;5013518;28;20424;-59
2023/09/06 06:09:15;;;;;;;4.50;1.90;;;;;;;;;;5009252;28;20473;-59
2023/09/06 06:11:41;;;;;;;5.00;1.90;;;;;;;;;;5014714;28;20471;-59
2023/09/06 06:14:06;;;;;;;5.28;2.00;;;;;;;;;;5022097;28;20407;-59
2023/09/06 06:16:32;;;;;;;4.77;2.13;;;;;;;;;;5026135;28;20732;-59
2023/09/06 06:18:57;;;;;;;3.60;2.03;;;;;;;;;;5023651;28;20421;-59
2023/09/06 06:21:23;;;;;;;4.53;2.30;;;;;;;;;;5022672;28;20478;-59
2023/09/06 06:23:48;;;;;;;4.97;2.37;;;;;;;;;;5022463;28;20919;-59
2023/09/06 06:26:15;;;;;;;4.87;2.20;;;;;;;;;;5033928;28;20743;-59
2023/09/06 06:28:40;;;;;;;4.45;2.20;;;;;;;;;;5031098;28;20403;-60
2023/09/06 06:31:06;;;;;;;5.07;2.10;;;;;;;;;;5027045;28;20407;-59
2023/09/06 06:33:32;;;;;;;5.75;2.17;;;;;;;;;;5033999;28;20413;-58
2023/09/06 06:35:57;;;;;;;4.88;2.15;;;;;;;;;;5035029;28;20472;-59
2023/09/06 06:38:22;;;;;;;5.70;2.40;;;;;;;;;;5028272;28;20387;-60
2023/09/06 06:40:47;;;;;;;6.00;2.20;;;;;;;;;;5028702;28;20411;-60
2023/09/06 06:43:13;;;;;;;3.90;2.10;;;;;;;;;;5031823;28;20413;-60
2023/09/06 06:45:38;;;;;;;5.47;3.63;;;;;;;;;;5033904;28;20860;-59
2023/09/06 06:48:03;;;;;;;5.53;3.20;;;;;;;;;;5019847;28;20425;-60
2023/09/06 06:50:29;;;;;;;5.90;3.20;;;;;;;;;;5022486;28;20996;-59
2023/09/06 06:52:54;;;;;;;5.83;3.30;;;;;;;;;;5022574;28;20463;-59
2023/09/06 06:55:19;;;;;;;6.60;3.27;;;;;;;;;;5018698;28;20411;-59
2023/09/06 06:57:45;;;;;;;7.87;3.10;;;;;;;;;;5020654;28;20500;-58
2023/09/06 07:00:11;;;;;;;5.97;2.95;;;;;;;;;;5021515;28;20898;-59
2023/09/06 07:02:37;;;;;;;4.70;2.83;;;;;;;;;;5019965;28;20460;-58
2023/09/06 07:05:03;;;;;;;7.50;3.38;;;;;;;;;;5018346;28;20407;-59
2023/09/06 07:07:28;;;;;;;5.68;3.40;;;;;;;;;;5025451;28;20455;-58
2023/09/06 07:09:53;;;;;;;7.20;3.63;;;;;;;;;;5038729;28;20402;-58
2023/09/06 07:12:19;;;;;;;6.47;3.30;;;;;;;;;;5033732;28;20425;-58
2023/09/06 07:14:44;;;;;;;5.87;3.33;;;;;;;;;;5028571;28;20886;-58
2023/09/06 07:17:09;;;;;;;7.20;3.67;;;;;;;;;;5019823;28;20423;-58
2023/09/06 07:19:35;;;;;;;5.90;3.33;;;;;;;;;;5021808;28;20406;-58
2023/09/06 07:22:00;;;;;;;5.60;3.30;;;;;;;;;;5022127;28;20423;-58
2023/09/06 07:24:25;;;;;;;5.80;3.90;;;;;;;;;;5030585;28;20782;-58
2023/09/06 07:26:51;;;;;;;5.43;3.50;;;;;;;;;;5025534;28;20902;-58
2023/09/06 07:29:18;;;;;;;6.73;3.60;;;;;;;;;;5026429;28;20480;-58
2023/09/06 07:31:43;;;;;;;7.38;4.18;;;;;;;;;;5022040;28;20526;-58
2023/09/06 07:34:09;;;;;;;6.83;3.60;;;;;;;;;;5032546;28;20414;-58
2023/09/06 07:36:34;;;;;;;5.50;3.50;;;;;;;;;;5034570;28;20399;-58
2023/09/06 07:38:59;;;;;;;6.40;3.40;;;;;;;;;;5032184;28;20402;-58
2023/09/06 07:41:26;;;;;;;5.63;3.40;;;;;;;;;;5034207;28;20395;-58
2023/09/06 07:43:52;;;;;;;6.75;3.65;;;;;;;;;;5035290;28;20408;-58
2023/09/06 07:46:17;;;;;;;6.53;3.80;;;;;;;;;;5034479;28;20405;-58
2023/09/06 07:48:42;;;;;;;5.37;3.73;;;;;;;;;;5029054;28;20817;-58
2023/09/06 07:51:08;;;;;;;9.57;4.03;;;;;;;;;;5035373;28;20413;-58
2023/09/06 07:53:33;;;;;;;7.00;3.97;;;;;;;;;;5032407;28;20429;-58
2023/09/06 07:55:58;;;;;;;6.47;4.07;;;;;;;;;;5022386;28;20830;-58
2023/09/06 07:58:24;;;;;;;7.00;3.90;;;;;;;;;;5022613;28;20421;-58
2023/09/06 08:00:49;;;;;;;7.23;4.10;;;;;;;;;;5024823;28;20951;-58
2023/09/06 08:03:15;;;;;;;6.78;3.60;;;;;;;;;;5023712;28;20403;-58
2023/09/06 08:05:40;;;;;;;4.90;3.22;;;;;;;;;;5028464;28;20409;-58
2023/09/06 08:08:06;;;;;;;8.13;3.70;;;;;;;;;;5026283;28;20767;-59
2023/09/06 08:10:33;;;;;;;5.53;3.50;;;;;;;;;;5025401;28;20416;-58
2023/09/06 08:12:58;;;;;;;6.32;3.50;;;;;;;;;;5020421;28;20490;-58
2023/09/06 08:15:23;;;;;;;5.43;3.13;;;;;;;;;;5024688;28;20500;-58
2023/09/06 08:17:49;;;;;;;3.90;2.47;;;;;;;;;;5025885;28;20470;-58
2023/09/06 08:20:15;;;;;;;4.47;2.80;;;;;;;;;;5021532;28;20506;-58
2023/09/06 08:22:41;;;;;;;5.57;2.90;;;;;;;;;;5028267;28;20450;-58
2023/09/06 08:25:06;;;;;;;6.50;2.70;;;;;;;;;;5036659;28;20430;-59
2023/09/06 08:27:31;;;;;;;6.57;2.80;;;;;;;;;;5036449;28;20420;-58
2023/09/06 08:29:58;;;;;;;7.23;2.90;;;;;;;;;;5032287;28;20437;-58
2023/09/06 08:32:23;;;;;;;7.20;3.15;;;;;;;;;;5035757;28;20430;-58
2023/09/06 08:34:49;;;;;;;5.37;2.57;;;;;;;;;;5037331;28;20801;-59
2023/09/06 08:37:14;;;;;;;5.55;2.42;;;;;;;;;;5029220;28;20408;-58
2023/09/06 08:39:39;;;;;;;4.87;2.33;;;;;;;;;;5033097;28;20407;-58
2023/09/06 08:42:06;;;;;;;5.10;2.47;;;;;;;;;;5025051;28;20421;-59
2023/09/06 08:44:31;;;;;;;5.03;2.53;;;;;;;;;;5020080;28;20739;-58
2023/09/06 08:46:56;;;;;;;6.40;2.70;;;;;;;;;;5015885;28;20960;-58
2023/09/06 08:49:22;;;;;;;7.90;2.63;;;;;;;;;;5015810;28;20794;-59
2023/09/06 08:51:48;;;;;;;5.40;2.63;;;;;;;;;;5023855;28;20418;-58
2023/09/06 08:54:13;;;;;;;7.88;2.58;;;;;;;;;;5018363;28;20820;-58
2023/09/06 08:56:39;;;;;;;6.07;2.70;;;;;;;;;;5025371;28;20464;-59
2023/09/06 08:59:04;;;;;;;5.68;2.47;;;;;;;;;;5023814;28;20524;-59
2023/09/06 09:01:30;;;;;;;6.68;2.50;;;;;;;;;;5019050;28;21483;-59
2023/09/06 09:03:55;;;;;;;5.97;2.57;;;;;;;;;;5023278;28;20908;-58
2023/09/06 09:06:20;;;;;;;5.97;2.50;;;;;;;;;;5023012;28;20407;-58
2023/09/06 09:08:46;;;;;;;7.33;2.83;;;;;;;;;;5023017;28;20981;-59
2023/09/06 09:11:11;;;;;;;5.93;2.80;;;;;;;;;;5020619;28;20766;-59
2023/09/06 09:13:36;;;;;;;7.43;2.70;;;;;;;;;;5024865;28;20954;-58
2023/09/06 09:16:07;;;;;;;6.30;2.80;;;;;;;;;;5023327;28;20419;-59
2023/09/06 09:18:34;;;;;;;6.80;2.80;;;;;;;;;;5017010;28;20417;-59
2023/09/06 09:21:00;;;;;;;7.47;2.73;;;;;;;;;;5034645;28;20401;-59
2023/09/06 09:23:26;;;;;;;4.97;2.70;;;;;;;;;;5043344;28;21222;-58
2023/09/06 09:25:51;;;;;;;5.75;2.70;;;;;;;;;;5040856;28;20410;-59
2023/09/06 09:28:16;;;;;;;7.03;2.80;;;;;;;;;;5041801;28;20457;-59
2023/09/06 09:30:42;;;;;;;7.90;3.00;;;;;;;;;;5044940;28;20808;-58
2023/09/06 09:33:07;;;;;;;7.80;2.90;;;;;;;;;;5048678;28;20967;-59
2023/09/06 09:35:32;;;;;;;7.87;3.20;;;;;;;;;;5043920;28;21642;-59
2023/09/06 09:37:58;;;;;;;7.80;2.90;;;;;;;;;;5044377;28;20397;-59
2023/09/06 09:40:32;;;;;;;6.57;2.90;;;;;;;;;;5036067;28;20397;-59
2023/09/06 09:42:57;;;;;;;7.30;2.80;;;;;;;;;;5032410;28;20407;-59
2023/09/06 09:45:24;;;;;;;6.97;2.90;;;;;;;;;;5038157;28;20399;-59
2023/09/06 09:47:50;;;;;;;6.03;2.60;;;;;;;;;;5040826;28;20780;-59
2023/09/06 09:50:16;;;;;;;5.73;2.63;;;;;;;;;;5039513;28;20769;-59
2023/09/06 09:52:42;;;;;;;5.23;2.40;;;;;;;;;;5041595;28;20401;-59
2023/09/06 09:55:08;;;;;;;6.70;2.50;;;;;;;;;;5042190;28;20409;-59
2023/09/06 09:57:34;;;;;;;7.72;2.47;;;;;;;;;;5037812;28;20592;-59
2023/09/06 10:00:00;;;;;;;5.45;2.60;;;;;;;;;;5043373;28;20748;-59
2023/09/06 10:02:25;;;;;;;5.97;2.53;;;;;;;;;;5042127;28;20456;-59
2023/09/06 10:04:50;;;;;;;7.03;2.50;;;;;;;;;;5040163;28;20406;-59
2023/09/06 10:07:15;;;;;;;4.30;2.20;;;;;;;;;;5040884;28;20915;-59
2023/09/06 10:09:42;;;;;;;6.03;2.60;;;;;;;;;;5028496;28;20414;-59
2023/09/06 10:12:07;;;;;;;7.35;2.60;;;;;;;;;;5030972;28;20493;-59
2023/09/06 10:14:33;;;;;;;6.13;2.22;;;;;;;;;;5023859;28;20495;-59
2023/09/06 10:16:58;;;;;;;5.90;2.50;;;;;;;;;;5023981;28;20438;-59
2023/09/06 10:19:23;;;;;;;7.60;2.80;;;;;;;;;;5021557;28;20422;-59
2023/09/06 10:21:49;;;;;;;5.90;2.50;;;;;;;;;;5017689;28;20560;-58
2023/09/06 10:24:16;;;;;;;5.77;2.67;;;;;;;;;;5023195;28;20805;-59
2023/09/06 10:26:43;;;;;;;6.80;2.90;;;;;;;;;;5023273;28;20415;-59
2023/09/06 10:29:09;;;;;;;5.47;2.72;;;;;;;;;;5018213;28;20561;-59
2023/09/06 10:31:35;;;;;;;6.30;2.88;;;;;;;;;;5021341;28;20452;-59
2023/09/06 10:34:04;;;;;;;5.88;2.90;;;;;;;;;;5022615;28;20416;-59
2023/09/06 10:36:30;;;;;;;5.10;2.80;;;;;;;;;;5030315;28;20426;-59
2023/09/06 10:38:55;;;;;;;6.93;2.97;;;;;;;;;;5026945;28;20477;-58
2023/09/06 10:41:22;;;;;;;5.57;2.33;;;;;;;;;;5034054;28;20418;-59
2023/09/06 10:43:48;;;;;;;5.28;2.50;;;;;;;;;;5019695;28;20401;-59
2023/09/06 10:46:19;;;;;;;7.30;2.83;;;;;;;;;;5022970;28;20494;-59
2023/09/06 10:49:04;;;;;;;6.55;2.65;;;;;;;;;;5021431;28;20416;-59
2023/09/06 10:51:29;;;;;;;5.50;2.38;;;;;;;;;;5041566;28;20414;-59
2023/09/06 10:53:55;;;;;;;3.58;2.22;;;;;;;;;;5043232;28;20445;-59
2023/09/06 10:56:27;;;;;;;5.43;2.35;;;;;;;;;;5042929;28;20402;-59
2023/09/06 10:58:54;;;;;;;6.53;2.40;;;;;;;;;;5051687;28;20476;-58
2023/09/06 11:01:20;;;;;;;6.03;2.33;;;;;;;;;;5042486;28;20418;-59
2023/09/06 11:03:47;;;;;;;4.77;2.40;;;;;;;;;;5045145;28;20450;-58
2023/09/06 11:06:12;;;;;;;5.18;2.30;;;;;;;;;;5045914;28;20444;-58
2023/09/06 11:08:38;;;;;;;6.43;2.50;;;;;;;;;;5044815;28;20805;-59
2023/09/06 11:11:05;;;;;;;5.47;2.40;;;;;;;;;;5042947;28;20407;-58
2023/09/06 11:13:32;;;;;;;5.25;2.28;;;;;;;;;;5046496;28;20405;-58
2023/09/06 11:15:58;;;;;;;6.10;2.30;;;;;;;;;;5046508;28;20405;-58
2023/09/06 11:18:23;;;;;;;5.10;2.10;;;;;;;;;;5040343;28;20389;-59
2023/09/06 11:20:49;;;;;;;5.30;2.10;;;;;;;;;;5046617;28;20413;-58
2023/09/06 11:23:15;;;;;;;6.18;2.55;;;;;;;;;;5046329;28;20947;-59
2023/09/06 11:25:40;;;;;;;5.33;2.30;;;;;;;;;;5042498;28;20401;-58
2023/09/06 11:28:21;;;;;;;5.83;2.50;;;;;;;;;;5046010;28;20492;-59
2023/09/06 11:30:47;;;;;;;4.95;2.20;;;;;;;;;;5053693;28;20798;-58
2023/09/06 11:33:15;;;;;;;5.30;2.35;;;;;;;;;;5043872;28;20828;-59
2023/09/06 11:35:42;;;;;;;4.97;2.53;;;;;;;;;;5047368;28;20791;-59
2023/09/06 11:38:10;;;;;;;4.43;2.25;;;;;;;;;;5042863;28;20420;-59
2023/09/06 11:40:35;;;;;;;4.57;2.27;;;;;;;;;;5043191;28;20492;-59
2023/09/06 11:43:04;;;;;;;5.53;2.20;;;;;;;;;;5037648;28;20488;-59
2023/09/06 11:45:31;;;;;;;5.43;2.40;;;;;;;;;;5033490;28;20383;-59
2023/09/06 11:47:59;;;;;;;7.00;2.22;;;;;;;;;;5029346;28;20777;-58
2023/09/06 11:50:24;;;;;;;3.90;2.25;;;;;;;;;;5037038;28;20402;-59
2023/09/06 11:52:50;;;;;;;4.57;2.20;;;;;;;;;;5029686;28;20405;-58
2023/09/06 11:55:16;;;;;;;4.67;2.33;;;;;;;;;;5032765;28;20817;-58
2023/09/06 11:57:46;;;;;;;6.47;2.20;;;;;;;;;;5030772;28;20403;-58
2023/09/06 12:00:25;;;;;;;4.30;2.30;;;;;;;;;;5024583;28;21009;-59
2023/09/06 12:02:51;;;;;;;4.97;2.30;;;;;;;;;;5026261;28;20799;-58
2023/09/06 12:05:16;;;;;;;5.47;2.40;;;;;;;;;;5019883;28;20403;-58
2023/09/06 12:07:43;;;;;;;3.93;2.13;;;;;;;;;;5023828;28;21851;-58
2023/09/06 12:10:08;;;;;;;4.78;2.40;;;;;;;;;;5025660;28;20459;-58
2023/09/06 12:12:40;;;;;;;4.60;2.20;;;;;;;;;;5031350;28;20398;-58
2023/09/06 12:15:10;;;;;;;6.05;2.17;;;;;;;;;;5037207;28;20410;-59
2023/09/06 12:17:35;;;;;;;4.75;2.40;;;;;;;;;;5017561;28;20409;-59
2023/09/06 12:20:01;;;;;;;4.67;2.47;;;;;;;;;;5034509;28;20409;-59
2023/09/06 12:22:26;;;;;;;4.83;2.20;;;;;;;;;;5028525;28;20759;-59
2023/09/06 12:24:52;;;;;;;5.10;2.40;;;;;;;;;;5033993;28;20408;-59
2023/09/06 12:27:20;;;;;;;6.27;2.37;;;;;;;;;;5035395;28;20739;-58
2023/09/06 12:29:45;;;;;;;4.50;2.27;;;;;;;;;;5034601;28;20483;-59
2023/09/06 12:32:11;;;;;;;4.73;2.20;;;;;;;;;;5030192;28;20494;-59
2023/09/06 12:34:36;;;;;;;5.50;2.40;;;;;;;;;;5035532;28;20432;-59
2023/09/06 12:37:02;;;;;;;2.93;2.10;;;;;;;;;;5033327;28;20467;-59
2023/09/06 12:39:28;;;;;;;4.45;2.30;;;;;;;;;;5032802;28;20391;-59
2023/09/06 12:41:53;;;;;;;4.20;2.17;;;;;;;;;;5032214;28;20418;-59
2023/09/06 12:44:19;;;;;;;4.70;2.10;;;;;;;;;;5030951;28;20414;-58
2023/09/06 12:46:44;;;;;;;4.83;2.20;;;;;;;;;;5036775;28;20510;-58
2023/09/06 12:49:09;;;;;;;7.00;2.33;;;;;;;;;;5034328;28;20544;-59
2023/09/06 12:51:36;;;;;;;5.93;2.40;;;;;;;;;;5028943;28;20446;-59
2023/09/06 12:54:03;;;;;;;4.33;2.03;;;;;;;;;;5032387;28;20436;-59
2023/09/06 12:56:28;;;;;;;6.15;2.40;;;;;;;;;;5035310;28;20481;-59
2023/09/06 12:58:53;;;;;;;4.37;2.10;;;;;;;;;;5034682;28;20420;-59
2023/09/06 13:01:19;;;;;;;4.10;2.10;;;;;;;;;;5030722;28;20414;-59
2023/09/06 13:03:45;;;;;;;3.77;2.13;;;;;;;;;;5033049;28;20429;-58
2023/09/06 13:06:10;;;;;;;4.97;2.40;;;;;;;;;;5025498;28;20555;-59
2023/09/06 13:08:36;;;;;;;4.17;1.90;;;;;;;;;;5025544;28;20413;-58
2023/09/06 13:11:02;;;;;;;5.57;2.20;;;;;;;;;;5038176;28;20490;-59
2023/09/06 13:13:27;;;;;;;4.90;2.00;;;;;;;;;;5043908;28;20409;-58
2023/09/06 13:15:52;;;;;;;4.57;2.10;;;;;;;;;;5024236;28;20413;-58
2023/09/06 13:18:19;;;;;;;3.63;1.93;;;;;;;;;;5025002;28;20411;-58
2023/09/06 13:20:44;;;;;;;3.63;2.03;;;;;;;;;;5023813;28;20497;-58
2023/09/06 13:23:10;;;;;;;3.67;2.00;;;;;;;;;;5019574;28;21033;-58
2023/09/06 13:25:35;;;;;;;4.43;2.00;;;;;;;;;;5023763;28;20913;-58
2023/09/06 13:28:00;;;;;;;3.60;2.10;;;;;;;;;;5024086;28;20441;-59
2023/09/06 13:30:26;;;;;;;3.40;2.10;;;;;;;;;;5021745;28;20411;-58
2023/09/06 13:32:51;;;;;;;3.63;2.10;;;;;;;;;;5002319;28;20487;-58
2023/09/06 13:35:16;;;;;;;3.70;2.00;;;;;;;;;;4987774;28;20466;-58
2023/09/06 13:37:41;;;;;;;4.37;1.90;;;;;;;;;;4988172;28;20394;-58
2023/09/06 13:40:08;;;;;;;4.60;2.10;;;;;;;;;;4990975;28;20442;-59
2023/09/06 13:42:33;;;;;;;3.15;2.10;;;;;;;;;;4999740;28;20454;-58
2023/09/06 13:44:58;;;;;;;3.40;2.20;;;;;;;;;;5012790;28;20417;-58
2023/09/06 13:47:24;;;;;;;3.80;1.83;;;;;;;;;;5004484;28;20408;-58
2023/09/06 13:49:50;;;;;;;4.30;2.00;;;;;;;;;;5011376;28;20441;-58
2023/09/06 13:52:15;;;;;;;3.42;2.10;;;;;;;;;;5007690;28;20440;-58
2023/09/06 13:54:40;;;;;;;4.33;2.10;;;;;;;;;;5005509;28;20549;-58
2023/09/06 13:57:07;;;;;;;4.03;2.07;;;;;;;;;;5004248;28;20404;-59
2023/09/06 13:59:32;;;;;;;4.72;2.20;;;;;;;;;;5008194;28;20475;-58
2023/09/06 14:01:57;;;;;;;5.03;2.00;;;;;;;;;;5003313;28;20481;-58
2023/09/06 14:04:23;;;;;;;3.17;2.10;;;;;;;;;;5004377;28;20764;-58
2023/09/06 14:06:49;;;;;;;9.10;2.00;;;;;;;;;;5013053;28;20543;-58
2023/09/06 14:09:14;;;;;;;3.88;1.90;;;;;;;;;;5010875;28;20421;-58
2023/09/06 14:11:40;;;;;;;4.73;1.90;;;;;;;;;;5014687;28;20404;-58
2023/09/06 14:14:06;;;;;;;4.80;2.00;;;;;;;;;;5005106;28;20410;-58
2023/09/06 14:16:31;;;;;;;2.87;1.90;;;;;;;;;;5011957;28;20437;-58
2023/09/06 14:18:57;;;;;;;3.60;2.10;;;;;;;;;;4999753;28;20406;-58
2023/09/06 14:21:22;;;;;;;4.57;2.10;;;;;;;;;;4987051;28;20402;-58
2023/09/06 14:23:48;;;;;;;5.03;1.90;;;;;;;;;;4986212;28;20418;-58
2023/09/06 14:26:13;;;;;;;3.72;1.75;;;;;;;;;;4989498;28;20534;-58
2023/09/06 14:28:39;;;;;;;5.53;2.00;;;;;;;;;;4997703;28;20426;-58
2023/09/06 14:31:08;;;;;;;4.37;2.00;;;;;;;;;;4992401;28;20440;-58
2023/09/06 14:33:33;;;;;;;4.60;1.90;;;;;;;;;;4993108;28;20431;-58
2023/09/06 14:35:59;;;;;;;4.80;1.97;;;;;;;;;;4992187;28;20505;-58